sensor_id;sensor_type;location;lat;lon;timestamp;pressure;altitude;pressure_sealevel;temperature
76394;BMP180;65216;51.090;-115.352;2022-12-29T00:01:36;85290.60;;;21.10
76394;BMP180;65216;51.090;-115.352;2022-12-29T00:04:04;85293.80;;;21.10
76394;BMP180;65216;51.090;-115.352;2022-12-29T00:06:32;85297.40;;;21.10
76394;BMP180;65216;51.090;-115.352;2022-12-29T00:08:59;85287.00;;;21.10
76394;BMP180;65216;51.090;-115.352;2022-12-29T00:11:28;85289.20;;;21.10
76394;BMP180;65216;51.090;-115.352;2022-12-29T00:13:58;85315.00;;;21.10
76394;BMP180;65216;51.090;-115.352;2022-12-29T00:16:45;85309.60;;;21.10
76394;BMP180;65216;51.090;-115.352;2022-12-29T00:19:15;85308.80;;;21.10
76394;BMP180;65216;51.090;-115.352;2022-12-29T00:22:03;85317.00;;;21.10
76394;BMP180;65216;51.090;-115.352;2022-12-29T00:24:49;85322.80;;;21.10
76394;BMP180;65216;51.090;-115.352;2022-12-29T00:27:32;85332.00;;;21.10
76394;BMP180;65216;51.090;-115.352;2022-12-29T00:30:23;85337.20;;;21.10
76394;BMP180;65216;51.090;-115.352;2022-12-29T00:33:15;85323.80;;;21.10
76394;BMP180;65216;51.090;-115.352;2022-12-29T00:36:11;85342.80;;;21.10
76394;BMP180;65216;51.090;-115.352;2022-12-29T00:38:49;85333.00;;;21.08
76394;BMP180;65216;51.090;-115.352;2022-12-29T00:41:36;85338.20;;;21.10
76394;BMP180;65216;51.090;-115.352;2022-12-29T00:44:22;85335.60;;;21.10
76394;BMP180;65216;51.090;-115.352;2022-12-29T00:46:52;85334.40;;;21.06
76394;BMP180;65216;51.090;-115.352;2022-12-29T00:49:20;85329.40;;;21.04
76394;BMP180;65216;51.090;-115.352;2022-12-29T00:52:07;85338.40;;;21.08
76394;BMP180;65216;51.090;-115.352;2022-12-29T00:54:41;85347.80;;;21.06
76394;BMP180;65216;51.090;-115.352;2022-12-29T00:57:11;85341.00;;;21.02
76394;BMP180;65216;51.090;-115.352;2022-12-29T00:59:42;85336.00;;;21.00
76394;BMP180;65216;51.090;-115.352;2022-12-29T01:02:13;85348.80;;;21.02
76394;BMP180;65216;51.090;-115.352;2022-12-29T01:04:43;85356.60;;;21.00
76394;BMP180;65216;51.090;-115.352;2022-12-29T01:07:14;85347.20;;;21.00
76394;BMP180;65216;51.090;-115.352;2022-12-29T01:09:44;85360.80;;;21.02
76394;BMP180;65216;51.090;-115.352;2022-12-29T01:12:32;85343.80;;;21.08
76394;BMP180;65216;51.090;-115.352;2022-12-29T01:15:13;85365.20;;;21.10
76394;BMP180;65216;51.090;-115.352;2022-12-29T01:17:41;85376.80;;;21.10
76394;BMP180;65216;51.090;-115.352;2022-12-29T01:20:10;85356.60;;;21.10
76394;BMP180;65216;51.090;-115.352;2022-12-29T01:22:37;85361.60;;;21.10
76394;BMP180;65216;51.090;-115.352;2022-12-29T01:25:06;85352.00;;;21.10
76394;BMP180;65216;51.090;-115.352;2022-12-29T01:27:33;85355.40;;;21.10
76394;BMP180;65216;51.090;-115.352;2022-12-29T01:30:04;85364.00;;;21.10
76394;BMP180;65216;51.090;-115.352;2022-12-29T01:32:32;85368.20;;;21.10
76394;BMP180;65216;51.090;-115.352;2022-12-29T01:35:02;85368.40;;;21.10
76394;BMP180;65216;51.090;-115.352;2022-12-29T01:37:29;85364.60;;;21.10
76394;BMP180;65216;51.090;-115.352;2022-12-29T01:39:59;85375.60;;;21.10
76394;BMP180;65216;51.090;-115.352;2022-12-29T01:42:26;85361.60;;;21.10
76394;BMP180;65216;51.090;-115.352;2022-12-29T01:45:01;85365.60;;;21.10
76394;BMP180;65216;51.090;-115.352;2022-12-29T01:47:38;85391.20;;;21.10
76394;BMP180;65216;51.090;-115.352;2022-12-29T01:50:38;85388.00;;;21.10
76394;BMP180;65216;51.090;-115.352;2022-12-29T01:53:16;85379.40;;;21.10
76394;BMP180;65216;51.090;-115.352;2022-12-29T01:55:53;85398.80;;;21.10
76394;BMP180;65216;51.090;-115.352;2022-12-29T01:58:26;85385.60;;;21.10
76394;BMP180;65216;51.090;-115.352;2022-12-29T02:00:58;85381.40;;;21.10
76394;BMP180;65216;51.090;-115.352;2022-12-29T02:03:27;85393.00;;;21.08
76394;BMP180;65216;51.090;-115.352;2022-12-29T02:08:47;85380.80;;;21.10
76394;BMP180;65216;51.090;-115.352;2022-12-29T02:11:17;85385.00;;;21.10
76394;BMP180;65216;51.090;-115.352;2022-12-29T02:13:48;85387.00;;;21.10
76394;BMP180;65216;51.090;-115.352;2022-12-29T02:16:49;85392.80;;;21.10
76394;BMP180;65216;51.090;-115.352;2022-12-29T02:31:11;85410.40;;;21.10
76394;BMP180;65216;51.090;-115.352;2022-12-29T02:37:03;85416.80;;;21.10
76394;BMP180;65216;51.090;-115.352;2022-12-29T02:42:49;85414.40;;;21.10
76394;BMP180;65216;51.090;-115.352;2022-12-29T02:45:32;85418.40;;;21.10
76394;BMP180;65216;51.090;-115.352;2022-12-29T02:51:18;85423.20;;;21.10
76394;BMP180;65216;51.090;-115.352;2022-12-29T02:53:47;85421.20;;;21.10
76394;BMP180;65216;51.090;-115.352;2022-12-29T02:56:35;85409.80;;;21.10
76394;BMP180;65216;51.090;-115.352;2022-12-29T02:59:02;85418.00;;;21.10
76394;BMP180;65216;51.090;-115.352;2022-12-29T03:01:53;85441.80;;;21.10
76394;BMP180;65216;51.090;-115.352;2022-12-29T03:05:11;85425.40;;;21.10
76394;BMP180;65216;51.090;-115.352;2022-12-29T03:11:11;85421.60;;;21.10
76394;BMP180;65216;51.090;-115.352;2022-12-29T03:14:27;85428.60;;;21.10
76394;BMP180;65216;51.090;-115.352;2022-12-29T03:20:11;85441.60;;;21.10
76394;BMP180;65216;51.090;-115.352;2022-12-29T03:22:45;85433.80;;;21.10
76394;BMP180;65216;51.090;-115.352;2022-12-29T03:25:30;85442.80;;;21.10
76394;BMP180;65216;51.090;-115.352;2022-12-29T03:28:03;85446.20;;;21.10
76394;BMP180;65216;51.090;-115.352;2022-12-29T03:30:36;85444.00;;;21.08
76394;BMP180;65216;51.090;-115.352;2022-12-29T03:33:12;85443.00;;;21.08
76394;BMP180;65216;51.090;-115.352;2022-12-29T03:35:44;85443.80;;;21.04
76394;BMP180;65216;51.090;-115.352;2022-12-29T03:40:56;85444.60;;;21.00
76394;BMP180;65216;51.090;-115.352;2022-12-29T03:43:26;85449.60;;;21.00
76394;BMP180;65216;51.090;-115.352;2022-12-29T03:45:53;85446.00;;;21.00
76394;BMP180;65216;51.090;-115.352;2022-12-29T03:48:23;85456.60;;;21.00
76394;BMP180;65216;51.090;-115.352;2022-12-29T03:50:53;85454.20;;;21.00
76394;BMP180;65216;51.090;-115.352;2022-12-29T03:53:23;85453.60;;;21.00
76394;BMP180;65216;51.090;-115.352;2022-12-29T03:55:56;85447.40;;;21.00
76394;BMP180;65216;51.090;-115.352;2022-12-29T03:58:27;85465.80;;;21.00
76394;BMP180;65216;51.090;-115.352;2022-12-29T04:00:54;85467.00;;;21.00
76394;BMP180;65216;51.090;-115.352;2022-12-29T04:03:24;85476.00;;;21.00
76394;BMP180;65216;51.090;-115.352;2022-12-29T04:05:55;85451.20;;;21.00
76394;BMP180;65216;51.090;-115.352;2022-12-29T04:08:22;85465.60;;;21.00
76394;BMP180;65216;51.090;-115.352;2022-12-29T04:10:50;85466.20;;;21.00
76394;BMP180;65216;51.090;-115.352;2022-12-29T04:13:20;85465.80;;;21.00
76394;BMP180;65216;51.090;-115.352;2022-12-29T04:15:47;85466.20;;;21.00
76394;BMP180;65216;51.090;-115.352;2022-12-29T04:18:15;85458.60;;;20.92
76394;BMP180;65216;51.090;-115.352;2022-12-29T04:20:48;85465.40;;;20.94
76394;BMP180;65216;51.090;-115.352;2022-12-29T04:23:36;85459.60;;;20.90
76394;BMP180;65216;51.090;-115.352;2022-12-29T04:26:07;85460.00;;;20.90
76394;BMP180;65216;51.090;-115.352;2022-12-29T04:28:38;85458.40;;;20.90
76394;BMP180;65216;51.090;-115.352;2022-12-29T04:31:08;85463.00;;;20.90
76394;BMP180;65216;51.090;-115.352;2022-12-29T04:33:38;85454.20;;;20.90
76394;BMP180;65216;51.090;-115.352;2022-12-29T04:36:05;85461.60;;;20.90
76394;BMP180;65216;51.090;-115.352;2022-12-29T04:38:36;85459.80;;;20.90
76394;BMP180;65216;51.090;-115.352;2022-12-29T04:41:09;85458.80;;;20.90
76394;BMP180;65216;51.090;-115.352;2022-12-29T04:43:39;85473.00;;;20.90
76394;BMP180;65216;51.090;-115.352;2022-12-29T04:46:09;85462.20;;;20.90
76394;BMP180;65216;51.090;-115.352;2022-12-29T04:48:37;85457.60;;;20.86
76394;BMP180;65216;51.090;-115.352;2022-12-29T04:51:04;85472.60;;;20.80
76394;BMP180;65216;51.090;-115.352;2022-12-29T04:53:32;85467.40;;;20.80
76394;BMP180;65216;51.090;-115.352;2022-12-29T04:55:59;85469.20;;;20.80
76394;BMP180;65216;51.090;-115.352;2022-12-29T04:58:30;85475.20;;;20.80
76394;BMP180;65216;51.090;-115.352;2022-12-29T05:00:57;85467.60;;;20.80
76394;BMP180;65216;51.090;-115.352;2022-12-29T05:03:25;85480.80;;;20.80
76394;BMP180;65216;51.090;-115.352;2022-12-29T05:05:56;85472.40;;;20.80
76394;BMP180;65216;51.090;-115.352;2022-12-29T05:08:24;85470.80;;;20.80
76394;BMP180;65216;51.090;-115.352;2022-12-29T05:10:52;85472.40;;;20.80
76394;BMP180;65216;51.090;-115.352;2022-12-29T05:13:20;85484.80;;;20.80
76394;BMP180;65216;51.090;-115.352;2022-12-29T05:15:54;85489.60;;;20.80
76394;BMP180;65216;51.090;-115.352;2022-12-29T05:18:26;85481.20;;;20.80
76394;BMP180;65216;51.090;-115.352;2022-12-29T05:20:54;85482.00;;;20.76
76394;BMP180;65216;51.090;-115.352;2022-12-29T05:23:21;85485.20;;;20.72
76394;BMP180;65216;51.090;-115.352;2022-12-29T05:25:48;85483.40;;;20.70
76394;BMP180;65216;51.090;-115.352;2022-12-29T05:28:18;85479.60;;;20.72
76394;BMP180;65216;51.090;-115.352;2022-12-29T05:30:51;85490.40;;;20.72
76394;BMP180;65216;51.090;-115.352;2022-12-29T05:33:22;85491.60;;;20.70
76394;BMP180;65216;51.090;-115.352;2022-12-29T05:35:52;85495.00;;;20.70
76394;BMP180;65216;51.090;-115.352;2022-12-29T05:38:19;85496.40;;;20.70
76394;BMP180;65216;51.090;-115.352;2022-12-29T05:40:49;85492.40;;;20.70
76394;BMP180;65216;51.090;-115.352;2022-12-29T05:43:20;85499.00;;;20.70
76394;BMP180;65216;51.090;-115.352;2022-12-29T05:45:49;85496.00;;;20.70
76394;BMP180;65216;51.090;-115.352;2022-12-29T05:48:16;85491.40;;;20.70
76394;BMP180;65216;51.090;-115.352;2022-12-29T05:50:48;85494.20;;;20.70
76394;BMP180;65216;51.090;-115.352;2022-12-29T05:53:15;85496.00;;;20.70
76394;BMP180;65216;51.090;-115.352;2022-12-29T05:55:49;85495.00;;;20.66
76394;BMP180;65216;51.090;-115.352;2022-12-29T05:58:17;85497.40;;;20.70
76394;BMP180;65216;51.090;-115.352;2022-12-29T06:00:45;85498.20;;;20.64
76394;BMP180;65216;51.090;-115.352;2022-12-29T06:03:12;85495.20;;;20.62
76394;BMP180;65216;51.090;-115.352;2022-12-29T06:05:39;85494.00;;;20.62
76394;BMP180;65216;51.090;-115.352;2022-12-29T06:08:07;85497.60;;;20.60
76394;BMP180;65216;51.090;-115.352;2022-12-29T06:10:34;85498.80;;;20.60
76394;BMP180;65216;51.090;-115.352;2022-12-29T06:13:05;85492.60;;;20.60
76394;BMP180;65216;51.090;-115.352;2022-12-29T06:15:34;85494.00;;;20.60
76394;BMP180;65216;51.090;-115.352;2022-12-29T06:18:04;85499.40;;;20.60
76394;BMP180;65216;51.090;-115.352;2022-12-29T06:20:34;85498.60;;;20.60
76394;BMP180;65216;51.090;-115.352;2022-12-29T06:23:04;85499.00;;;20.60
76394;BMP180;65216;51.090;-115.352;2022-12-29T06:25:32;85507.60;;;20.60
76394;BMP180;65216;51.090;-115.352;2022-12-29T06:28:03;85509.60;;;20.60
76394;BMP180;65216;51.090;-115.352;2022-12-29T06:30:32;85511.60;;;20.60
76394;BMP180;65216;51.090;-115.352;2022-12-29T06:33:00;85512.40;;;20.60
76394;BMP180;65216;51.090;-115.352;2022-12-29T06:35:28;85515.20;;;20.60
76394;BMP180;65216;51.090;-115.352;2022-12-29T06:37:55;85510.80;;;20.60
76394;BMP180;65216;51.090;-115.352;2022-12-29T06:40:25;85508.40;;;20.60
76394;BMP180;65216;51.090;-115.352;2022-12-29T06:42:52;85512.20;;;20.60
76394;BMP180;65216;51.090;-115.352;2022-12-29T06:45:19;85509.80;;;20.60
76394;BMP180;65216;51.090;-115.352;2022-12-29T06:47:47;85508.40;;;20.60
76394;BMP180;65216;51.090;-115.352;2022-12-29T06:50:14;85519.20;;;20.60
76394;BMP180;65216;51.090;-115.352;2022-12-29T06:52:42;85520.00;;;20.60
76394;BMP180;65216;51.090;-115.352;2022-12-29T06:55:09;85508.20;;;20.60
76394;BMP180;65216;51.090;-115.352;2022-12-29T06:57:37;85516.40;;;20.58
76394;BMP180;65216;51.090;-115.352;2022-12-29T07:00:05;85506.80;;;20.60
76394;BMP180;65216;51.090;-115.352;2022-12-29T07:02:34;85515.80;;;20.52
76394;BMP180;65216;51.090;-115.352;2022-12-29T07:05:02;85524.60;;;20.50
76394;BMP180;65216;51.090;-115.352;2022-12-29T07:07:29;85512.20;;;20.50
76394;BMP180;65216;51.090;-115.352;2022-12-29T07:09:59;85513.60;;;20.50
76394;BMP180;65216;51.090;-115.352;2022-12-29T07:12:27;85516.20;;;20.50
76394;BMP180;65216;51.090;-115.352;2022-12-29T07:14:54;85520.00;;;20.50
76394;BMP180;65216;51.090;-115.352;2022-12-29T07:17:21;85519.20;;;20.50
76394;BMP180;65216;51.090;-115.352;2022-12-29T07:19:51;85514.80;;;20.50
76394;BMP180;65216;51.090;-115.352;2022-12-29T07:22:19;85519.20;;;20.50
76394;BMP180;65216;51.090;-115.352;2022-12-29T07:24:49;85522.20;;;20.50
76394;BMP180;65216;51.090;-115.352;2022-12-29T07:27:17;85523.60;;;20.50
76394;BMP180;65216;51.090;-115.352;2022-12-29T07:29:44;85510.60;;;20.50
76394;BMP180;65216;51.090;-115.352;2022-12-29T07:32:11;85513.40;;;20.50
76394;BMP180;65216;51.090;-115.352;2022-12-29T07:34:41;85517.40;;;20.50
76394;BMP180;65216;51.090;-115.352;2022-12-29T07:37:11;85517.00;;;20.50
76394;BMP180;65216;51.090;-115.352;2022-12-29T07:39:40;85507.80;;;20.50
76394;BMP180;65216;51.090;-115.352;2022-12-29T07:42:08;85508.60;;;20.50
76394;BMP180;65216;51.090;-115.352;2022-12-29T07:44:40;85510.40;;;20.50
76394;BMP180;65216;51.090;-115.352;2022-12-29T07:47:08;85508.80;;;20.50
76394;BMP180;65216;51.090;-115.352;2022-12-29T07:49:35;85510.80;;;20.50
76394;BMP180;65216;51.090;-115.352;2022-12-29T07:52:08;85520.20;;;20.50
76394;BMP180;65216;51.090;-115.352;2022-12-29T07:54:38;85515.80;;;20.48
76394;BMP180;65216;51.090;-115.352;2022-12-29T07:57:06;85518.40;;;20.46
76394;BMP180;65216;51.090;-115.352;2022-12-29T07:59:37;85522.80;;;20.48
76394;BMP180;65216;51.090;-115.352;2022-12-29T08:02:04;85526.00;;;20.44
76394;BMP180;65216;51.090;-115.352;2022-12-29T08:04:35;85532.40;;;20.46
76394;BMP180;65216;51.090;-115.352;2022-12-29T08:07:05;85535.20;;;20.40
76394;BMP180;65216;51.090;-115.352;2022-12-29T08:09:32;85538.00;;;20.42
76394;BMP180;65216;51.090;-115.352;2022-12-29T08:12:02;85539.40;;;20.42
76394;BMP180;65216;51.090;-115.352;2022-12-29T08:14:30;85538.00;;;20.40
76394;BMP180;65216;51.090;-115.352;2022-12-29T08:16:57;85540.20;;;20.40
76394;BMP180;65216;51.090;-115.352;2022-12-29T08:19:24;85536.80;;;20.40
76394;BMP180;65216;51.090;-115.352;2022-12-29T08:21:56;85536.20;;;20.40
76394;BMP180;65216;51.090;-115.352;2022-12-29T08:24:26;85538.20;;;20.40
76394;BMP180;65216;51.090;-115.352;2022-12-29T08:26:56;85540.40;;;20.40
76394;BMP180;65216;51.090;-115.352;2022-12-29T08:29:23;85531.20;;;20.40
76394;BMP180;65216;51.090;-115.352;2022-12-29T08:31:51;85542.40;;;20.40
76394;BMP180;65216;51.090;-115.352;2022-12-29T08:34:21;85545.80;;;20.40
76394;BMP180;65216;51.090;-115.352;2022-12-29T08:36:51;85541.40;;;20.40
76394;BMP180;65216;51.090;-115.352;2022-12-29T08:39:21;85545.60;;;20.40
76394;BMP180;65216;51.090;-115.352;2022-12-29T08:41:48;85538.40;;;20.40
76394;BMP180;65216;51.090;-115.352;2022-12-29T08:44:16;85543.20;;;20.40
76394;BMP180;65216;51.090;-115.352;2022-12-29T08:46:43;85546.40;;;20.40
76394;BMP180;65216;51.090;-115.352;2022-12-29T08:49:11;85546.00;;;20.40
76394;BMP180;65216;51.090;-115.352;2022-12-29T08:51:41;85547.60;;;20.40
76394;BMP180;65216;51.090;-115.352;2022-12-29T08:54:09;85547.20;;;20.40
76394;BMP180;65216;51.090;-115.352;2022-12-29T08:56:36;85545.40;;;20.40
76394;BMP180;65216;51.090;-115.352;2022-12-29T08:59:03;85549.40;;;20.40
76394;BMP180;65216;51.090;-115.352;2022-12-29T09:01:33;85552.80;;;20.40
76394;BMP180;65216;51.090;-115.352;2022-12-29T09:04:03;85549.60;;;20.40
76394;BMP180;65216;51.090;-115.352;2022-12-29T09:06:33;85541.20;;;20.40
76394;BMP180;65216;51.090;-115.352;2022-12-29T09:09:03;85542.60;;;20.40
76394;BMP180;65216;51.090;-115.352;2022-12-29T09:11:35;85544.80;;;20.40
76394;BMP180;65216;51.090;-115.352;2022-12-29T09:14:05;85545.00;;;20.40
76394;BMP180;65216;51.090;-115.352;2022-12-29T09:16:35;85545.20;;;20.40
76394;BMP180;65216;51.090;-115.352;2022-12-29T09:19:03;85546.60;;;20.40
76394;BMP180;65216;51.090;-115.352;2022-12-29T09:21:31;85546.40;;;20.40
76394;BMP180;65216;51.090;-115.352;2022-12-29T09:24:01;85552.80;;;20.40
76394;BMP180;65216;51.090;-115.352;2022-12-29T09:26:28;85552.40;;;20.40
76394;BMP180;65216;51.090;-115.352;2022-12-29T09:28:56;85555.60;;;20.40
76394;BMP180;65216;51.090;-115.352;2022-12-29T09:31:23;85556.20;;;20.40
76394;BMP180;65216;51.090;-115.352;2022-12-29T09:33:54;85560.40;;;20.40
76394;BMP180;65216;51.090;-115.352;2022-12-29T09:36:21;85566.80;;;20.40
76394;BMP180;65216;51.090;-115.352;2022-12-29T09:38:49;85561.20;;;20.40
76394;BMP180;65216;51.090;-115.352;2022-12-29T09:41:43;85564.60;;;20.38
76394;BMP180;65216;51.090;-115.352;2022-12-29T09:45:15;85565.60;;;20.32
76394;BMP180;65216;51.090;-115.352;2022-12-29T09:47:25;85574.20;;;20.34
76394;BMP180;65216;51.090;-115.352;2022-12-29T09:50:09;85571.60;;;20.30
76394;BMP180;65216;51.090;-115.352;2022-12-29T09:53:20;85577.00;;;20.30
76394;BMP180;65216;51.090;-115.352;2022-12-29T09:55:53;85585.40;;;20.30
76394;BMP180;65216;51.090;-115.352;2022-12-29T10:01:05;85583.80;;;20.30
76394;BMP180;65216;51.090;-115.352;2022-12-29T10:03:51;85588.00;;;20.30
76394;BMP180;65216;51.090;-115.352;2022-12-29T10:06:51;85595.40;;;20.30
76394;BMP180;65216;51.090;-115.352;2022-12-29T10:09:45;85597.60;;;20.30
76394;BMP180;65216;51.090;-115.352;2022-12-29T10:16:16;85597.20;;;20.30
76394;BMP180;65216;51.090;-115.352;2022-12-29T10:24:42;85605.80;;;20.30
76394;BMP180;65216;51.090;-115.352;2022-12-29T10:27:13;85599.80;;;20.30
76394;BMP180;65216;51.090;-115.352;2022-12-29T10:29:53;85607.80;;;20.30
76394;BMP180;65216;51.090;-115.352;2022-12-29T10:32:47;85599.00;;;20.30
76394;BMP180;65216;51.090;-115.352;2022-12-29T10:35:38;85604.00;;;20.30
76394;BMP180;65216;51.090;-115.352;2022-12-29T10:41:00;85599.60;;;20.30
76394;BMP180;65216;51.090;-115.352;2022-12-29T10:43:35;85606.20;;;20.30
76394;BMP180;65216;51.090;-115.352;2022-12-29T10:46:14;85612.80;;;20.30
76394;BMP180;65216;51.090;-115.352;2022-12-29T10:48:46;85604.40;;;20.30
76394;BMP180;65216;51.090;-115.352;2022-12-29T10:51:32;85609.00;;;20.30
76394;BMP180;65216;51.090;-115.352;2022-12-29T10:57:35;85609.40;;;20.30
76394;BMP180;65216;51.090;-115.352;2022-12-29T11:00:01;85620.40;;;20.30
76394;BMP180;65216;51.090;-115.352;2022-12-29T11:09:11;85615.80;;;20.30
76394;BMP180;65216;51.090;-115.352;2022-12-29T11:11:38;85615.00;;;20.30
76394;BMP180;65216;51.090;-115.352;2022-12-29T11:14:21;85621.40;;;20.30
76394;BMP180;65216;51.090;-115.352;2022-12-29T11:17:02;85614.80;;;20.30
76394;BMP180;65216;51.090;-115.352;2022-12-29T11:19:32;85617.00;;;20.30
76394;BMP180;65216;51.090;-115.352;2022-12-29T11:22:27;85614.40;;;20.30
76394;BMP180;65216;51.090;-115.352;2022-12-29T11:25:06;85613.40;;;20.30
76394;BMP180;65216;51.090;-115.352;2022-12-29T11:27:37;85627.20;;;20.30
76394;BMP180;65216;51.090;-115.352;2022-12-29T11:30:24;85630.00;;;20.30
76394;BMP180;65216;51.090;-115.352;2022-12-29T11:32:56;85629.60;;;20.30
76394;BMP180;65216;51.090;-115.352;2022-12-29T11:35:44;85624.00;;;20.30
76394;BMP180;65216;51.090;-115.352;2022-12-29T11:38:27;85628.20;;;20.30
76394;BMP180;65216;51.090;-115.352;2022-12-29T11:41:04;85635.60;;;20.20
76394;BMP180;65216;51.090;-115.352;2022-12-29T11:43:37;85637.00;;;20.20
76394;BMP180;65216;51.090;-115.352;2022-12-29T11:46:05;85630.40;;;20.20
76394;BMP180;65216;51.090;-115.352;2022-12-29T11:48:40;85629.00;;;20.20
76394;BMP180;65216;51.090;-115.352;2022-12-29T11:51:10;85643.20;;;20.16
76394;BMP180;65216;51.090;-115.352;2022-12-29T11:53:47;85646.60;;;20.10
76394;BMP180;65216;51.090;-115.352;2022-12-29T11:56:31;85642.60;;;20.10
76394;BMP180;65216;51.090;-115.352;2022-12-29T12:01:53;85644.60;;;20.10
76394;BMP180;65216;51.090;-115.352;2022-12-29T12:04:34;85641.80;;;20.10
76394;BMP180;65216;51.090;-115.352;2022-12-29T12:07:17;85644.60;;;20.10
76394;BMP180;65216;51.090;-115.352;2022-12-29T12:09:58;85647.00;;;20.10
76394;BMP180;65216;51.090;-115.352;2022-12-29T12:12:32;85645.20;;;20.06
76394;BMP180;65216;51.090;-115.352;2022-12-29T12:15:03;85642.00;;;20.02
76394;BMP180;65216;51.090;-115.352;2022-12-29T12:23:56;85657.00;;;20.00
76394;BMP180;65216;51.090;-115.352;2022-12-29T12:26:22;85655.40;;;20.00
76394;BMP180;65216;51.090;-115.352;2022-12-29T12:29:10;85653.40;;;20.00
76394;BMP180;65216;51.090;-115.352;2022-12-29T12:32:34;85649.20;;;20.00
76394;BMP180;65216;51.090;-115.352;2022-12-29T12:34:52;85658.40;;;20.00
76394;BMP180;65216;51.090;-115.352;2022-12-29T12:46:54;85652.00;;;20.00
76394;BMP180;65216;51.090;-115.352;2022-12-29T12:49:46;85652.20;;;20.00
76394;BMP180;65216;51.090;-115.352;2022-12-29T12:53:00;85655.60;;;20.00
76394;BMP180;65216;51.090;-115.352;2022-12-29T13:07:58;85666.80;;;20.00
76394;BMP180;65216;51.090;-115.352;2022-12-29T13:10:45;85671.80;;;20.00
76394;BMP180;65216;51.090;-115.352;2022-12-29T13:16:29;85678.20;;;19.98
76394;BMP180;65216;51.090;-115.352;2022-12-29T13:33:47;85692.80;;;19.90
76394;BMP180;65216;51.090;-115.352;2022-12-29T13:41:56;85700.00;;;19.90
76394;BMP180;65216;51.090;-115.352;2022-12-29T13:49:56;85700.00;;;19.90
76394;BMP180;65216;51.090;-115.352;2022-12-29T14:01:40;85703.60;;;19.90
76394;BMP180;65216;51.090;-115.352;2022-12-29T14:04:21;85700.80;;;19.90
76394;BMP180;65216;51.090;-115.352;2022-12-29T14:07:05;85701.60;;;19.90
76394;BMP180;65216;51.090;-115.352;2022-12-29T14:09:47;85704.20;;;19.90
76394;BMP180;65216;51.090;-115.352;2022-12-29T14:12:38;85705.00;;;19.90
76394;BMP180;65216;51.090;-115.352;2022-12-29T14:15:19;85706.00;;;19.90
76394;BMP180;65216;51.090;-115.352;2022-12-29T14:18:11;85707.20;;;19.90
76394;BMP180;65216;51.090;-115.352;2022-12-29T14:23:41;85696.80;;;19.90
76394;BMP180;65216;51.090;-115.352;2022-12-29T14:26:34;85701.80;;;19.90
76394;BMP180;65216;51.090;-115.352;2022-12-29T14:31:53;85698.20;;;19.90
76394;BMP180;65216;51.090;-115.352;2022-12-29T14:34:30;85694.00;;;19.90
76394;BMP180;65216;51.090;-115.352;2022-12-29T14:37:02;85696.60;;;19.90
76394;BMP180;65216;51.090;-115.352;2022-12-29T14:39:41;85705.80;;;19.90
76394;BMP180;65216;51.090;-115.352;2022-12-29T14:42:12;85708.00;;;19.90
76394;BMP180;65216;51.090;-115.352;2022-12-29T14:47:39;85713.80;;;19.90
76394;BMP180;65216;51.090;-115.352;2022-12-29T14:55:47;85729.60;;;19.90
76394;BMP180;65216;51.090;-115.352;2022-12-29T15:01:32;85725.20;;;19.90
76394;BMP180;65216;51.090;-115.352;2022-12-29T15:04:41;85729.00;;;19.90
76394;BMP180;65216;51.090;-115.352;2022-12-29T15:07:09;85735.40;;;19.90
76394;BMP180;65216;51.090;-115.352;2022-12-29T15:09:58;85726.20;;;19.90
76394;BMP180;65216;51.090;-115.352;2022-12-29T15:12:43;85733.00;;;19.88
76394;BMP180;65216;51.090;-115.352;2022-12-29T15:15:27;85732.00;;;19.90
76394;BMP180;65216;51.090;-115.352;2022-12-29T15:17:56;85729.40;;;19.90
76394;BMP180;65216;51.090;-115.352;2022-12-29T15:20:30;85719.60;;;19.90
76394;BMP180;65216;51.090;-115.352;2022-12-29T15:23:10;85725.80;;;19.90
76394;BMP180;65216;51.090;-115.352;2022-12-29T15:25:58;85724.20;;;19.90
76394;BMP180;65216;51.090;-115.352;2022-12-29T15:28:40;85721.40;;;19.90
76394;BMP180;65216;51.090;-115.352;2022-12-29T15:31:19;85734.00;;;19.90
76394;BMP180;65216;51.090;-115.352;2022-12-29T15:33:52;85727.60;;;19.90
76394;BMP180;65216;51.090;-115.352;2022-12-29T15:36:26;85731.80;;;19.90
76394;BMP180;65216;51.090;-115.352;2022-12-29T15:38:54;85723.40;;;19.90
76394;BMP180;65216;51.090;-115.352;2022-12-29T15:41:43;85735.80;;;19.86
76394;BMP180;65216;51.090;-115.352;2022-12-29T15:44:45;85732.20;;;19.90
76394;BMP180;65216;51.090;-115.352;2022-12-29T15:47:25;85737.20;;;19.84
76394;BMP180;65216;51.090;-115.352;2022-12-29T15:50:30;85742.40;;;19.88
76394;BMP180;65216;51.090;-115.352;2022-12-29T15:52:59;85752.60;;;19.90
76394;BMP180;65216;51.090;-115.352;2022-12-29T15:55:38;85749.60;;;19.90
76394;BMP180;65216;51.090;-115.352;2022-12-29T15:58:28;85742.40;;;19.90
76394;BMP180;65216;51.090;-115.352;2022-12-29T16:00:59;85750.80;;;19.90
76394;BMP180;65216;51.090;-115.352;2022-12-29T16:03:33;85752.40;;;19.90
76394;BMP180;65216;51.090;-115.352;2022-12-29T16:06:32;85754.20;;;19.90
76394;BMP180;65216;51.090;-115.352;2022-12-29T16:11:53;85756.60;;;19.90
76394;BMP180;65216;51.090;-115.352;2022-12-29T16:14:33;85756.80;;;20.00
76394;BMP180;65216;51.090;-115.352;2022-12-29T16:17:03;85753.20;;;20.00
76394;BMP180;65216;51.090;-115.352;2022-12-29T16:19:42;85764.40;;;20.00
76394;BMP180;65216;51.090;-115.352;2022-12-29T16:22:48;85764.20;;;20.00
76394;BMP180;65216;51.090;-115.352;2022-12-29T16:25:35;85767.40;;;20.00
76394;BMP180;65216;51.090;-115.352;2022-12-29T16:28:21;85769.00;;;20.00
76394;BMP180;65216;51.090;-115.352;2022-12-29T16:31:02;85774.20;;;20.00
76394;BMP180;65216;51.090;-115.352;2022-12-29T16:33:44;85771.60;;;20.00
76394;BMP180;65216;51.090;-115.352;2022-12-29T16:36:33;85777.40;;;20.00
76394;BMP180;65216;51.090;-115.352;2022-12-29T16:39:26;85782.80;;;20.00
76394;BMP180;65216;51.090;-115.352;2022-12-29T16:41:56;85777.20;;;20.02